sensor_id;sensor_type;location;lat;lon;timestamp;temperature;humidity
5938;DHT22;2994;51.220;4.412;2022-09-27T00:00:16;13.17;79.22
5938;DHT22;2994;51.220;4.412;2022-09-27T00:02:42;13.36;79.24
5938;DHT22;2994;51.220;4.412;2022-09-27T00:05:07;13.27;76.89
5938;DHT22;2994;51.220;4.412;2022-09-27T00:07:34;13.17;76.97
5938;DHT22;2994;51.220;4.412;2022-09-27T00:09:59;13.30;75.91
5938;DHT22;2994;51.220;4.412;2022-09-27T00:12:24;13.44;77.05
5938;DHT22;2994;51.220;4.412;2022-09-27T00:14:50;13.10;76.10
5938;DHT22;2994;51.220;4.412;2022-09-27T00:17:15;13.25;76.50
5938;DHT22;2994;51.220;4.412;2022-09-27T00:19:41;13.19;77.40
5938;DHT22;2994;51.220;4.412;2022-09-27T00:22:06;13.09;77.26
5938;DHT22;2994;51.220;4.412;2022-09-27T00:24:32;13.09;78.18
5938;DHT22;2994;51.220;4.412;2022-09-27T00:26:57;13.02;77.37
5938;DHT22;2994;51.220;4.412;2022-09-27T00:29:23;13.21;77.95
5938;DHT22;2994;51.220;4.412;2022-09-27T00:31:49;12.99;75.93
5938;DHT22;2994;51.220;4.412;2022-09-27T00:34:20;13.09;77.88
5938;DHT22;2994;51.220;4.412;2022-09-27T00:36:47;13.07;76.67
5938;DHT22;2994;51.220;4.412;2022-09-27T00:39:13;13.06;76.56
5938;DHT22;2994;51.220;4.412;2022-09-27T00:41:39;13.07;76.35
5938;DHT22;2994;51.220;4.412;2022-09-27T00:47:07;13.20;73.67
5938;DHT22;2994;51.220;4.412;2022-09-27T00:49:46;13.20;75.42
5938;DHT22;2994;51.220;4.412;2022-09-27T00:52:22;13.03;75.20
5938;DHT22;2994;51.220;4.412;2022-09-27T00:54:52;13.01;74.99
5938;DHT22;2994;51.220;4.412;2022-09-27T00:57:21;13.08;74.79
5938;DHT22;2994;51.220;4.412;2022-09-27T00:59:50;13.05;75.32
5938;DHT22;2994;51.220;4.412;2022-09-27T01:02:18;13.10;75.60
5938;DHT22;2994;51.220;4.412;2022-09-27T01:04:44;12.88;76.58
5938;DHT22;2994;51.220;4.412;2022-09-27T01:07:10;13.10;77.40
5938;DHT22;2994;51.220;4.412;2022-09-27T01:09:36;13.19;77.92
5938;DHT22;2994;51.220;4.412;2022-09-27T01:15:05;13.31;78.84
5938;DHT22;2994;51.220;4.412;2022-09-27T01:18:07;13.15;78.11
5938;DHT22;2994;51.220;4.412;2022-09-27T01:23:46;13.07;77.17
5938;DHT22;2994;51.220;4.412;2022-09-27T01:26:26;12.81;78.05
5938;DHT22;2994;51.220;4.412;2022-09-27T01:29:22;12.52;78.37
5938;DHT22;2994;51.220;4.412;2022-09-27T01:34:46;12.33;78.53
5938;DHT22;2994;51.220;4.412;2022-09-27T01:42:56;12.31;77.72
5938;DHT22;2994;51.220;4.412;2022-09-27T01:46:04;12.10;77.13
5938;DHT22;2994;51.220;4.412;2022-09-27T01:48:36;11.98;78.05
5938;DHT22;2994;51.220;4.412;2022-09-27T01:51:11;11.93;78.08
5938;DHT22;2994;51.220;4.412;2022-09-27T01:53:44;12.18;78.10
5938;DHT22;2994;51.220;4.412;2022-09-27T01:56:19;11.96;77.91
5938;DHT22;2994;51.220;4.412;2022-09-27T02:01:31;11.63;78.62
5938;DHT22;2994;51.220;4.412;2022-09-27T02:03:59;11.88;78.18
5938;DHT22;2994;51.220;4.412;2022-09-27T02:06:38;12.02;77.29
5938;DHT22;2994;51.220;4.412;2022-09-27T02:09:17;11.52;77.58
5938;DHT22;2994;51.220;4.412;2022-09-27T02:11:48;11.36;79.25
5938;DHT22;2994;51.220;4.412;2022-09-27T02:14:21;11.39;79.81
5938;DHT22;2994;51.220;4.412;2022-09-27T02:17:03;11.59;79.45
5938;DHT22;2994;51.220;4.412;2022-09-27T02:19:53;11.36;81.70
5938;DHT22;2994;51.220;4.412;2022-09-27T02:22:40;11.24;81.53
5938;DHT22;2994;51.220;4.412;2022-09-27T02:30:54;11.39;79.49
5938;DHT22;2994;51.220;4.412;2022-09-27T02:33:25;11.68;79.10
5938;DHT22;2994;51.220;4.412;2022-09-27T02:35:52;11.67;77.76
5938;DHT22;2994;51.220;4.412;2022-09-27T02:38:18;11.87;76.92
5938;DHT22;2994;51.220;4.412;2022-09-27T02:40:46;11.84;76.00
5938;DHT22;2994;51.220;4.412;2022-09-27T02:43:13;11.97;75.96
5938;DHT22;2994;51.220;4.412;2022-09-27T02:46:10;12.03;75.26
5938;DHT22;2994;51.220;4.412;2022-09-27T02:51:46;12.06;73.79
5938;DHT22;2994;51.220;4.412;2022-09-27T02:54:28;12.05;75.31
5938;DHT22;2994;51.220;4.412;2022-09-27T02:59:52;12.34;75.86
5938;DHT22;2994;51.220;4.412;2022-09-27T03:02:34;12.43;77.47
5938;DHT22;2994;51.220;4.412;2022-09-27T03:05:07;12.51;76.50
5938;DHT22;2994;51.220;4.412;2022-09-27T03:07:34;12.53;76.79
5938;DHT22;2994;51.220;4.412;2022-09-27T03:10:00;12.56;76.90
5938;DHT22;2994;51.220;4.412;2022-09-27T03:12:25;12.60;77.00
5938;DHT22;2994;51.220;4.412;2022-09-27T03:14:56;12.65;76.50
5938;DHT22;2994;51.220;4.412;2022-09-27T03:17:21;12.58;75.08
5938;DHT22;2994;51.220;4.412;2022-09-27T03:19:47;12.64;75.72
5938;DHT22;2994;51.220;4.412;2022-09-27T03:22:13;12.64;76.25
5938;DHT22;2994;51.220;4.412;2022-09-27T03:24:39;12.62;75.29
5938;DHT22;2994;51.220;4.412;2022-09-27T03:27:05;12.67;76.28
5938;DHT22;2994;51.220;4.412;2022-09-27T03:29:30;12.71;76.76
5938;DHT22;2994;51.220;4.412;2022-09-27T03:31:56;12.58;75.65
5938;DHT22;2994;51.220;4.412;2022-09-27T03:34:21;12.65;75.91
5938;DHT22;2994;51.220;4.412;2022-09-27T03:36:47;12.34;76.42
5938;DHT22;2994;51.220;4.412;2022-09-27T03:39:12;12.35;76.54
5938;DHT22;2994;51.220;4.412;2022-09-27T03:41:38;12.51;76.48
5938;DHT22;2994;51.220;4.412;2022-09-27T03:44:03;12.41;76.95
5938;DHT22;2994;51.220;4.412;2022-09-27T03:46:29;12.18;77.46
5938;DHT22;2994;51.220;4.412;2022-09-27T03:48:54;12.18;78.04
5938;DHT22;2994;51.220;4.412;2022-09-27T03:51:20;12.26;78.05
5938;DHT22;2994;51.220;4.412;2022-09-27T03:53:46;12.33;78.72
5938;DHT22;2994;51.220;4.412;2022-09-27T03:56:12;12.41;78.75
5938;DHT22;2994;51.220;4.412;2022-09-27T03:58:37;12.38;78.87
5938;DHT22;2994;51.220;4.412;2022-09-27T04:01:03;12.49;78.99
5938;DHT22;2994;51.220;4.412;2022-09-27T04:03:29;12.51;79.27
5938;DHT22;2994;51.220;4.412;2022-09-27T04:05:54;12.57;78.95
5938;DHT22;2994;51.220;4.412;2022-09-27T04:08:20;12.59;79.23
5938;DHT22;2994;51.220;4.412;2022-09-27T04:10:47;12.55;79.14
5938;DHT22;2994;51.220;4.412;2022-09-27T04:13:12;12.61;78.98
5938;DHT22;2994;51.220;4.412;2022-09-27T04:15:38;12.59;79.08
5938;DHT22;2994;51.220;4.412;2022-09-27T04:18:04;12.62;78.96
5938;DHT22;2994;51.220;4.412;2022-09-27T04:20:30;12.63;79.04
5938;DHT22;2994;51.220;4.412;2022-09-27T04:22:55;12.63;78.48
5938;DHT22;2994;51.220;4.412;2022-09-27T04:25:21;12.56;77.65
5938;DHT22;2994;51.220;4.412;2022-09-27T04:27:47;12.64;77.88
5938;DHT22;2994;51.220;4.412;2022-09-27T04:30:13;12.52;78.10
5938;DHT22;2994;51.220;4.412;2022-09-27T04:32:45;12.60;78.63
5938;DHT22;2994;51.220;4.412;2022-09-27T04:35:14;12.52;79.06
5938;DHT22;2994;51.220;4.412;2022-09-27T04:37:59;12.50;79.57
5938;DHT22;2994;51.220;4.412;2022-09-27T04:40:24;12.49;79.96
5938;DHT22;2994;51.220;4.412;2022-09-27T04:42:51;12.48;80.13
5938;DHT22;2994;51.220;4.412;2022-09-27T04:45:17;12.52;80.14
5938;DHT22;2994;51.220;4.412;2022-09-27T04:47:47;12.49;80.47
5938;DHT22;2994;51.220;4.412;2022-09-27T04:50:14;12.43;80.46
5938;DHT22;2994;51.220;4.412;2022-09-27T04:52:40;12.40;80.56
5938;DHT22;2994;51.220;4.412;2022-09-27T04:55:06;12.36;80.85
5938;DHT22;2994;51.220;4.412;2022-09-27T04:57:32;12.43;80.82
5938;DHT22;2994;51.220;4.412;2022-09-27T04:59:58;12.44;81.08
5938;DHT22;2994;51.220;4.412;2022-09-27T05:02:25;12.48;81.19
5938;DHT22;2994;51.220;4.412;2022-09-27T05:04:52;12.51;81.00
5938;DHT22;2994;51.220;4.412;2022-09-27T05:07:17;12.52;81.13
5938;DHT22;2994;51.220;4.412;2022-09-27T05:09:43;12.52;81.04
5938;DHT22;2994;51.220;4.412;2022-09-27T05:12:09;12.58;81.12
5938;DHT22;2994;51.220;4.412;2022-09-27T05:14:35;12.56;81.24
5938;DHT22;2994;51.220;4.412;2022-09-27T05:17:01;12.58;81.31
5938;DHT22;2994;51.220;4.412;2022-09-27T05:19:27;12.51;81.36
5938;DHT22;2994;51.220;4.412;2022-09-27T05:21:52;12.53;81.34
5938;DHT22;2994;51.220;4.412;2022-09-27T05:24:18;12.51;81.30
5938;DHT22;2994;51.220;4.412;2022-09-27T05:26:44;12.49;81.44
5938;DHT22;2994;51.220;4.412;2022-09-27T05:29:11;12.48;81.23
5938;DHT22;2994;51.220;4.412;2022-09-27T05:31:36;12.45;81.24
5938;DHT22;2994;51.220;4.412;2022-09-27T05:34:02;12.44;81.47
5938;DHT22;2994;51.220;4.412;2022-09-27T05:36:27;12.50;81.57
5938;DHT22;2994;51.220;4.412;2022-09-27T05:38:52;12.52;81.46
5938;DHT22;2994;51.220;4.412;2022-09-27T05:41:18;12.53;81.29
5938;DHT22;2994;51.220;4.412;2022-09-27T05:43:44;12.52;81.23
5938;DHT22;2994;51.220;4.412;2022-09-27T05:46:10;12.53;81.28
5938;DHT22;2994;51.220;4.412;2022-09-27T05:48:36;12.57;81.24
5938;DHT22;2994;51.220;4.412;2022-09-27T05:51:01;12.53;81.23
5938;DHT22;2994;51.220;4.412;2022-09-27T05:53:27;12.58;81.42
5938;DHT22;2994;51.220;4.412;2022-09-27T05:55:53;12.63;81.17
5938;DHT22;2994;51.220;4.412;2022-09-27T05:58:18;12.65;81.08
5938;DHT22;2994;51.220;4.412;2022-09-27T06:00:44;12.67;81.06
5938;DHT22;2994;51.220;4.412;2022-09-27T06:03:10;12.66;80.93
5938;DHT22;2994;51.220;4.412;2022-09-27T06:05:38;12.62;81.06
5938;DHT22;2994;51.220;4.412;2022-09-27T06:08:13;12.63;80.87
5938;DHT22;2994;51.220;4.412;2022-09-27T06:10:39;12.65;81.12
5938;DHT22;2994;51.220;4.412;2022-09-27T06:13:09;12.70;80.87
5938;DHT22;2994;51.220;4.412;2022-09-27T06:15:35;12.70;80.69
5938;DHT22;2994;51.220;4.412;2022-09-27T06:18:07;12.64;80.85
5938;DHT22;2994;51.220;4.412;2022-09-27T06:20:36;12.64;80.78
5938;DHT22;2994;51.220;4.412;2022-09-27T06:23:07;12.64;80.62
5938;DHT22;2994;51.220;4.412;2022-09-27T06:25:33;12.72;80.75
5938;DHT22;2994;51.220;4.412;2022-09-27T06:27:59;12.67;80.47
5938;DHT22;2994;51.220;4.412;2022-09-27T06:30:24;12.72;80.52
5938;DHT22;2994;51.220;4.412;2022-09-27T06:32:55;12.69;80.16
5938;DHT22;2994;51.220;4.412;2022-09-27T06:35:21;12.67;80.33
5938;DHT22;2994;51.220;4.412;2022-09-27T06:37:49;12.67;80.40
5938;DHT22;2994;51.220;4.412;2022-09-27T06:40:15;12.65;80.33
5938;DHT22;2994;51.220;4.412;2022-09-27T06:42:40;12.61;80.08
5938;DHT22;2994;51.220;4.412;2022-09-27T06:45:06;12.59;80.14
5938;DHT22;2994;51.220;4.412;2022-09-27T06:47:38;12.63;80.04
5938;DHT22;2994;51.220;4.412;2022-09-27T06:50:05;12.57;80.13
5938;DHT22;2994;51.220;4.412;2022-09-27T06:52:34;12.64;79.85
5938;DHT22;2994;51.220;4.412;2022-09-27T06:55:01;12.66;79.59
5938;DHT22;2994;51.220;4.412;2022-09-27T06:57:27;12.56;79.81
5938;DHT22;2994;51.220;4.412;2022-09-27T07:00:11;12.66;79.46
5938;DHT22;2994;51.220;4.412;2022-09-27T07:02:51;12.67;79.78
5938;DHT22;2994;51.220;4.412;2022-09-27T07:05:17;12.74;79.48
5938;DHT22;2994;51.220;4.412;2022-09-27T07:07:43;12.67;79.82
5938;DHT22;2994;51.220;4.412;2022-09-27T07:10:09;12.71;79.64
5938;DHT22;2994;51.220;4.412;2022-09-27T07:12:35;12.60;78.79
5938;DHT22;2994;51.220;4.412;2022-09-27T07:15:02;12.60;78.90
5938;DHT22;2994;51.220;4.412;2022-09-27T07:17:27;12.67;79.25
5938;DHT22;2994;51.220;4.412;2022-09-27T07:19:54;12.66;79.60
5938;DHT22;2994;51.220;4.412;2022-09-27T07:22:19;12.75;79.60
5938;DHT22;2994;51.220;4.412;2022-09-27T07:24:45;12.77;79.56
5938;DHT22;2994;51.220;4.412;2022-09-27T07:27:11;12.72;79.44
5938;DHT22;2994;51.220;4.412;2022-09-27T07:29:36;12.74;79.49
5938;DHT22;2994;51.220;4.412;2022-09-27T07:32:02;12.76;79.66
5938;DHT22;2994;51.220;4.412;2022-09-27T07:34:28;12.86;79.53
5938;DHT22;2994;51.220;4.412;2022-09-27T07:36:58;12.91;79.80
5938;DHT22;2994;51.220;4.412;2022-09-27T07:39:24;12.89;79.75
5938;DHT22;2994;51.220;4.412;2022-09-27T07:41:50;12.96;79.26
5938;DHT22;2994;51.220;4.412;2022-09-27T07:44:15;13.01;79.18
5938;DHT22;2994;51.220;4.412;2022-09-27T07:46:42;13.03;79.31
5938;DHT22;2994;51.220;4.412;2022-09-27T07:49:07;12.99;79.24
5938;DHT22;2994;51.220;4.412;2022-09-27T07:51:33;12.97;79.03
5938;DHT22;2994;51.220;4.412;2022-09-27T07:53:58;12.94;79.09
5938;DHT22;2994;51.220;4.412;2022-09-27T07:56:26;12.81;79.39
5938;DHT22;2994;51.220;4.412;2022-09-27T07:58:51;12.91;79.35
5938;DHT22;2994;51.220;4.412;2022-09-27T08:01:17;12.96;79.38
5938;DHT22;2994;51.220;4.412;2022-09-27T08:03:42;13.00;79.40
5938;DHT22;2994;51.220;4.412;2022-09-27T08:06:09;13.06;79.30
5938;DHT22;2994;51.220;4.412;2022-09-27T08:08:35;13.12;79.35
5938;DHT22;2994;51.220;4.412;2022-09-27T08:11:08;13.16;79.19
5938;DHT22;2994;51.220;4.412;2022-09-27T08:13:36;13.12;79.09
5938;DHT22;2994;51.220;4.412;2022-09-27T08:16:03;13.02;79.06
5938;DHT22;2994;51.220;4.412;2022-09-27T08:18:28;13.10;78.76
5938;DHT22;2994;51.220;4.412;2022-09-27T08:20:57;13.00;79.03
5938;DHT22;2994;51.220;4.412;2022-09-27T08:23:23;12.95;78.87
5938;DHT22;2994;51.220;4.412;2022-09-27T08:25:53;12.91;78.77
5938;DHT22;2994;51.220;4.412;2022-09-27T08:28:18;12.93;78.95
5938;DHT22;2994;51.220;4.412;2022-09-27T08:30:44;13.01;78.97
5938;DHT22;2994;51.220;4.412;2022-09-27T08:33:10;13.05;78.85
5938;DHT22;2994;51.220;4.412;2022-09-27T08:35:35;13.11;78.85
5938;DHT22;2994;51.220;4.412;2022-09-27T08:38:02;13.12;78.83
5938;DHT22;2994;51.220;4.412;2022-09-27T08:43:40;13.15;78.75
5938;DHT22;2994;51.220;4.412;2022-09-27T08:49:04;13.31;78.28
5938;DHT22;2994;51.220;4.412;2022-09-27T08:51:32;13.22;78.42
5938;DHT22;2994;51.220;4.412;2022-09-27T08:54:16;13.36;78.15
5938;DHT22;2994;51.220;4.412;2022-09-27T08:56:44;13.38;78.24
5938;DHT22;2994;51.220;4.412;2022-09-27T08:59:14;13.39;78.36
5938;DHT22;2994;51.220;4.412;2022-09-27T09:01:40;13.30;78.47
5938;DHT22;2994;51.220;4.412;2022-09-27T09:04:08;13.31;78.44
5938;DHT22;2994;51.220;4.412;2022-09-27T09:17:56;13.15;78.80
5938;DHT22;2994;51.220;4.412;2022-09-27T09:24:02;13.22;79.11
5938;DHT22;2994;51.220;4.412;2022-09-27T09:26:17;13.16;79.09
5938;DHT22;2994;51.220;4.412;2022-09-27T09:31:46;13.25;79.57
5938;DHT22;2994;51.220;4.412;2022-09-27T09:37:03;13.33;79.71
5938;DHT22;2994;51.220;4.412;2022-09-27T09:40:02;13.22;79.59
5938;DHT22;2994;51.220;4.412;2022-09-27T09:42:37;13.18;80.18
5938;DHT22;2994;51.220;4.412;2022-09-27T09:45:14;13.27;80.17
5938;DHT22;2994;51.220;4.412;2022-09-27T09:50:42;13.35;79.67
5938;DHT22;2994;51.220;4.412;2022-09-27T09:53:23;13.34;79.69
5938;DHT22;2994;51.220;4.412;2022-09-27T09:56:00;13.30;79.59
5938;DHT22;2994;51.220;4.412;2022-09-27T09:58:46;13.30;79.39
5938;DHT22;2994;51.220;4.412;2022-09-27T10:01:19;13.16;78.84
5938;DHT22;2994;51.220;4.412;2022-09-27T10:03:46;12.94;79.01
5938;DHT22;2994;51.220;4.412;2022-09-27T10:06:12;13.09;78.97
5938;DHT22;2994;51.220;4.412;2022-09-27T10:08:38;13.09;78.47
5938;DHT22;2994;51.220;4.412;2022-09-27T10:11:05;13.21;78.92
5938;DHT22;2994;51.220;4.412;2022-09-27T10:13:33;13.25;78.34
5938;DHT22;2994;51.220;4.412;2022-09-27T10:16:09;13.21;76.92
5938;DHT22;2994;51.220;4.412;2022-09-27T10:18:39;13.32;76.79
5938;DHT22;2994;51.220;4.412;2022-09-27T10:21:10;13.25;76.76
5938;DHT22;2994;51.220;4.412;2022-09-27T10:26:32;13.50;77.26
5938;DHT22;2994;51.220;4.412;2022-09-27T10:28:57;13.63;77.76
5938;DHT22;2994;51.220;4.412;2022-09-27T10:31:38;13.66;76.73
5938;DHT22;2994;51.220;4.412;2022-09-27T10:34:17;13.84;76.87
5938;DHT22;2994;51.220;4.412;2022-09-27T10:36:43;13.54;75.41
5938;DHT22;2994;51.220;4.412;2022-09-27T10:39:20;13.62;75.31
5938;DHT22;2994;51.220;4.412;2022-09-27T10:41:46;13.91;76.00
5938;DHT22;2994;51.220;4.412;2022-09-27T10:46:42;13.83;73.28
5938;DHT22;2994;51.220;4.412;2022-09-27T10:49:18;13.84;73.54
5938;DHT22;2994;51.220;4.412;2022-09-27T10:51:49;14.15;74.21
5938;DHT22;2994;51.220;4.412;2022-09-27T10:54:19;14.10;73.63
5938;DHT22;2994;51.220;4.412;2022-09-27T10:56:53;14.05;72.16
5938;DHT22;2994;51.220;4.412;2022-09-27T10:59:20;14.24;73.67
5938;DHT22;2994;51.220;4.412;2022-09-27T11:01:45;14.38;73.44
5938;DHT22;2994;51.220;4.412;2022-09-27T11:04:35;14.53;73.07
5938;DHT22;2994;51.220;4.412;2022-09-27T11:07:18;14.58;71.06
5938;DHT22;2994;51.220;4.412;2022-09-27T11:09:52;14.65;71.38
5938;DHT22;2994;51.220;4.412;2022-09-27T11:12:19;14.10;67.27
5938;DHT22;2994;51.220;4.412;2022-09-27T11:15:02;14.48;71.25
5938;DHT22;2994;51.220;4.412;2022-09-27T11:17:50;14.56;68.58
5938;DHT22;2994;51.220;4.412;2022-09-27T11:20:38;14.40;68.52
5938;DHT22;2994;51.220;4.412;2022-09-27T11:23:36;14.58;69.57
5938;DHT22;2994;51.220;4.412;2022-09-27T11:28:42;14.86;67.97
5938;DHT22;2994;51.220;4.412;2022-09-27T11:39:22;14.86;69.25
5938;DHT22;2994;51.220;4.412;2022-09-27T11:44:42;14.32;63.21
5938;DHT22;2994;51.220;4.412;2022-09-27T12:09:43;13.30;70.92
5938;DHT22;2994;51.220;4.412;2022-09-27T12:12:17;13.35;71.81
5938;DHT22;2994;51.220;4.412;2022-09-27T12:14:50;13.69;70.79
5938;DHT22;2994;51.220;4.412;2022-09-27T12:17:20;13.90;70.71
5938;DHT22;2994;51.220;4.412;2022-09-27T12:19:53;13.80;68.13
5938;DHT22;2994;51.220;4.412;2022-09-27T12:22:42;13.82;67.39
5938;DHT22;2994;51.220;4.412;2022-09-27T12:25:13;13.75;69.69
5938;DHT22;2994;51.220;4.412;2022-09-27T12:27:45;14.04;70.73
5938;DHT22;2994;51.220;4.412;2022-09-27T12:30:13;14.08;69.46
5938;DHT22;2994;51.220;4.412;2022-09-27T12:35:40;14.10;71.13
5938;DHT22;2994;51.220;4.412;2022-09-27T12:38:14;14.32;70.56
5938;DHT22;2994;51.220;4.412;2022-09-27T12:40:45;14.43;69.84
5938;DHT22;2994;51.220;4.412;2022-09-27T12:43:28;14.57;70.26
5938;DHT22;2994;51.220;4.412;2022-09-27T12:51:28;15.08;71.39
5938;DHT22;2994;51.220;4.412;2022-09-27T13:02:21;15.11;70.87
5938;DHT22;2994;51.220;4.412;2022-09-27T13:05:06;14.95;67.61
5938;DHT22;2994;51.220;4.412;2022-09-27T13:07:44;14.68;64.20
5938;DHT22;2994;51.220;4.412;2022-09-27T13:13:03;14.47;63.34
5938;DHT22;2994;51.220;4.412;2022-09-27T13:15:35;14.54;64.24
5938;DHT22;2994;51.220;4.412;2022-09-27T13:18:06;14.45;64.09
5938;DHT22;2994;51.220;4.412;2022-09-27T13:20:51;14.32;64.52
5938;DHT22;2994;51.220;4.412;2022-09-27T13:26:02;13.82;69.18
5938;DHT22;2994;51.220;4.412;2022-09-27T13:31:02;14.34;69.90
5938;DHT22;2994;51.220;4.412;2022-09-27T13:33:44;14.06;69.36
5938;DHT22;2994;51.220;4.412;2022-09-27T13:49:49;14.81;70.59
5938;DHT22;2994;51.220;4.412;2022-09-27T13:52:31;14.37;69.26
5938;DHT22;2994;51.220;4.412;2022-09-27T13:55:05;14.39;70.23
5938;DHT22;2994;51.220;4.412;2022-09-27T13:57:41;13.64;73.14
5938;DHT22;2994;51.220;4.412;2022-09-27T14:00:18;13.00;74.42
5938;DHT22;2994;51.220;4.412;2022-09-27T14:03:02;12.82;76.34
5938;DHT22;2994;51.220;4.412;2022-09-27T14:05:36;12.69;77.89
5938;DHT22;2994;51.220;4.412;2022-09-27T14:08:04;12.52;77.33
5938;DHT22;2994;51.220;4.412;2022-09-27T14:10:30;12.52;77.79
5938;DHT22;2994;51.220;4.412;2022-09-27T14:12:58;12.71;78.12
5938;DHT22;2994;51.220;4.412;2022-09-27T14:15:28;12.93;78.84
5938;DHT22;2994;51.220;4.412;2022-09-27T14:17:55;13.08;79.43
5938;DHT22;2994;51.220;4.412;2022-09-27T14:22:56;13.58;79.01
5938;DHT22;2994;51.220;4.412;2022-09-27T14:25:22;13.51;78.82
5938;DHT22;2994;51.220;4.412;2022-09-27T14:27:47;13.60;78.79
5938;DHT22;2994;51.220;4.412;2022-09-27T14:30:16;13.63;78.95
5938;DHT22;2994;51.220;4.412;2022-09-27T14:32:53;13.61;78.59
5938;DHT22;2994;51.220;4.412;2022-09-27T14:35:21;13.61;79.08
5938;DHT22;2994;51.220;4.412;2022-09-27T14:38:18;13.66;78.50
5938;DHT22;2994;51.220;4.412;2022-09-27T14:41:05;13.53;76.29
5938;DHT22;2994;51.220;4.412;2022-09-27T14:43:33;13.74;77.59
5938;DHT22;2994;51.220;4.412;2022-09-27T14:46:04;13.73;77.82
5938;DHT22;2994;51.220;4.412;2022-09-27T14:48:34;13.69;77.06
5938;DHT22;2994;51.220;4.412;2022-09-27T14:51:17;13.80;77.12
5938;DHT22;2994;51.220;4.412;2022-09-27T15:01:25;13.80;76.58
5938;DHT22;2994;51.220;4.412;2022-09-27T15:03:50;13.67;77.18
5938;DHT22;2994;51.220;4.412;2022-09-27T15:06:18;13.68;76.81
5938;DHT22;2994;51.220;4.412;2022-09-27T15:08:45;13.70;76.77
5938;DHT22;2994;51.220;4.412;2022-09-27T15:11:14;13.53;77.28
5938;DHT22;2994;51.220;4.412;2022-09-27T15:13:40;13.73;77.50
5938;DHT22;2994;51.220;4.412;2022-09-27T15:16:15;13.84;77.56
5938;DHT22;2994;51.220;4.412;2022-09-27T15:19:29;13.93;77.45
5938;DHT22;2994;51.220;4.412;2022-09-27T15:21:32;14.06;77.18
5938;DHT22;2994;51.220;4.412;2022-09-27T15:23:58;14.01;76.76
5938;DHT22;2994;51.220;4.412;2022-09-27T15:26:43;14.10;76.37
5938;DHT22;2994;51.220;4.412;2022-09-27T15:29:18;14.22;76.68
5938;DHT22;2994;51.220;4.412;2022-09-27T15:31:44;14.27;76.63
5938;DHT22;2994;51.220;4.412;2022-09-27T15:34:17;14.23;76.91
5938;DHT22;2994;51.220;4.412;2022-09-27T15:39:08;14.04;77.13
5938;DHT22;2994;51.220;4.412;2022-09-27T15:42:03;13.96;76.86
5938;DHT22;2994;51.220;4.412;2022-09-27T15:52:52;14.00;77.29
5938;DHT22;2994;51.220;4.412;2022-09-27T15:55:31;13.97;77.35
5938;DHT22;2994;51.220;4.412;2022-09-27T15:58:19;14.08;76.92
5938;DHT22;2994;51.220;4.412;2022-09-27T16:00:57;14.04;76.79
5938;DHT22;2994;51.220;4.412;2022-09-27T16:03:24;14.09;76.87
5938;DHT22;2994;51.220;4.412;2022-09-27T16:05:51;14.05;76.46
5938;DHT22;2994;51.220;4.412;2022-09-27T16:08:17;14.21;76.15
5938;DHT22;2994;51.220;4.412;2022-09-27T16:10:47;14.32;75.97
5938;DHT22;2994;51.220;4.412;2022-09-27T16:13:16;14.38;75.46
5938;DHT22;2994;51.220;4.412;2022-09-27T16:15:42;14.36;75.45
5938;DHT22;2994;51.220;4.412;2022-09-27T16:18:09;14.35;75.61
5938;DHT22;2994;51.220;4.412;2022-09-27T16:20:35;14.41;75.18
5938;DHT22;2994;51.220;4.412;2022-09-27T16:23:01;14.43;74.77
5938;DHT22;2994;51.220;4.412;2022-09-27T16:25:26;14.37;74.84
5938;DHT22;2994;51.220;4.412;2022-09-27T16:27:55;14.27;73.98
5938;DHT22;2994;51.220;4.412;2022-09-27T16:30:21;14.37;74.81
5938;DHT22;2994;51.220;4.412;2022-09-27T16:32:49;14.37;74.76
5938;DHT22;2994;51.220;4.412;2022-09-27T16:35:16;14.38;75.02
5938;DHT22;2994;51.220;4.412;2022-09-27T16:37:42;14.34;75.04
5938;DHT22;2994;51.220;4.412;2022-09-27T16:40:09;14.40;74.60
5938;DHT22;2994;51.220;4.412;2022-09-27T16:42:35;14.37;74.74
5938;DHT22;2994;51.220;4.412;2022-09-27T16:45:03;14.45;74.88
5938;DHT22;2994;51.220;4.412;2022-09-27T16:47:29;14.40;74.74
5938;DHT22;2994;51.220;4.412;2022-09-27T16:49:55;14.35;74.76
5938;DHT22;2994;51.220;4.412;2022-09-27T16:52:39;14.39;74.09
5938;DHT22;2994;51.220;4.412;2022-09-27T16:55:06;14.34;74.48
5938;DHT22;2994;51.220;4.412;2022-09-27T16:57:32;14.28;74.64
5938;DHT22;2994;51.220;4.412;2022-09-27T16:59:59;14.33;74.78
5938;DHT22;2994;51.220;4.412;2022-09-27T17:02:25;14.29;74.94
5938;DHT22;2994;51.220;4.412;2022-09-27T17:04:51;14.23;74.99
5938;DHT22;2994;51.220;4.412;2022-09-27T17:07:19;14.29;74.99
5938;DHT22;2994;51.220;4.412;2022-09-27T17:09:45;14.30;74.83
5938;DHT22;2994;51.220;4.412;2022-09-27T17:12:13;14.37;74.70
5938;DHT22;2994;51.220;4.412;2022-09-27T17:14:39;14.34;74.62
5938;DHT22;2994;51.220;4.412;2022-09-27T17:17:05;14.32;74.80
5938;DHT22;2994;51.220;4.412;2022-09-27T17:19:40;14.25;75.02
5938;DHT22;2994;51.220;4.412;2022-09-27T17:22:06;14.30;74.96
5938;DHT22;2994;51.220;4.412;2022-09-27T17:24:34;14.30;75.12
5938;DHT22;2994;51.220;4.412;2022-09-27T17:27:02;14.34;74.92
5938;DHT22;2994;51.220;4.412;2022-09-27T17:29:28;14.19;75.47
5938;DHT22;2994;51.220;4.412;2022-09-27T17:32:00;14.17;75.63
5938;DHT22;2994;51.220;4.412;2022-09-27T17:34:25;14.19;75.86
5938;DHT22;2994;51.220;4.412;2022-09-27T17:36:54;14.23;75.51
5938;DHT22;2994;51.220;4.412;2022-09-27T17:39:20;14.17;75.39
5938;DHT22;2994;51.220;4.412;2022-09-27T17:41:49;14.17;75.50
5938;DHT22;2994;51.220;4.412;2022-09-27T17:44:24;14.17;75.51
5938;DHT22;2994;51.220;4.412;2022-09-27T17:46:51;14.13;75.30
5938;DHT22;2994;51.220;4.412;2022-09-27T17:49:37;14.09;75.37
5938;DHT22;2994;51.220;4.412;2022-09-27T17:52:28;14.10;75.26
5938;DHT22;2994;51.220;4.412;2022-09-27T17:54:58;14.14;75.09
5938;DHT22;2994;51.220;4.412;2022-09-27T17:57:27;14.05;75.44
5938;DHT22;2994;51.220;4.412;2022-09-27T17:59:55;14.03;75.51
5938;DHT22;2994;51.220;4.412;2022-09-27T18:02:22;14.07;75.38
5938;DHT22;2994;51.220;4.412;2022-09-27T18:04:47;14.01;75.92
5938;DHT22;2994;51.220;4.412;2022-09-27T18:07:13;13.99;75.89
5938;DHT22;2994;51.220;4.412;2022-09-27T18:09:41;14.00;75.59
5938;DHT22;2994;51.220;4.412;2022-09-27T18:12:18;14.08;75.54
5938;DHT22;2994;51.220;4.412;2022-09-27T18:14:49;14.12;75.76
5938;DHT22;2994;51.220;4.412;2022-09-27T18:17:18;14.08;75.45
5938;DHT22;2994;51.220;4.412;2022-09-27T18:19:46;14.15;75.17
5938;DHT22;2994;51.220;4.412;2022-09-27T18:22:14;14.20;75.48
5938;DHT22;2994;51.220;4.412;2022-09-27T18:24:40;14.11;74.40
5938;DHT22;2994;51.220;4.412;2022-09-27T18:27:05;13.81;69.45
5938;DHT22;2994;51.220;4.412;2022-09-27T18:29:31;13.81;68.23
5938;DHT22;2994;51.220;4.412;2022-09-27T18:31:56;13.67;69.13
5938;DHT22;2994;51.220;4.412;2022-09-27T18:34:22;13.49;70.07
5938;DHT22;2994;51.220;4.412;2022-09-27T18:36:47;13.36;71.38
5938;DHT22;2994;51.220;4.412;2022-09-27T18:39:15;13.24;72.08
5938;DHT22;2994;51.220;4.412;2022-09-27T18:41:45;13.23;72.63
5938;DHT22;2994;51.220;4.412;2022-09-27T18:44:13;13.24;72.83
5938;DHT22;2994;51.220;4.412;2022-09-27T18:46:39;13.21;73.69
5938;DHT22;2994;51.220;4.412;2022-09-27T18:49:06;13.19;74.86
5938;DHT22;2994;51.220;4.412;2022-09-27T18:51:33;13.18;75.51
5938;DHT22;2994;51.220;4.412;2022-09-27T18:54:03;13.20;76.10
5938;DHT22;2994;51.220;4.412;2022-09-27T18:56:29;13.21;75.22
5938;DHT22;2994;51.220;4.412;2022-09-27T18:58:55;13.20;75.20
5938;DHT22;2994;51.220;4.412;2022-09-27T19:01:22;13.09;74.50